Time;durP1;ratioP1;P1;durP2;ratioP2;P2;SDS_P1;SDS_P2;PMS_P1;PMS_P2;Temp;Humidity;BMP_temperature;BMP_pressure;BME280_temperature;BME280_humidity;BME280_pressure;Samples;Min_cycle;Max_cycle;Signal;HPM_P1;HPM_P2
2022/11/02 00:02:02;;;;;;;11.35;2.40;;;;;;;18.04;63.82;101332.19;5053588;28;20030;-70
2022/11/02 00:04:27;;;;;;;9.17;2.20;;;;;;;18.36;62.64;101322.28;5046800;28;20032;-69
2022/11/02 00:06:52;;;;;;;7.17;1.90;;;;;;;18.11;64.10;101328.41;5038889;28;20048;-68
2022/11/02 00:09:18;;;;;;;10.63;2.23;;;;;;;18.45;62.36;101329.03;5049376;28;20033;-69
2022/11/02 00:11:43;;;;;;;14.57;2.23;;;;;;;18.17;63.94;101334.41;5049769;28;20036;-70
2022/11/02 00:14:08;;;;;;;12.13;2.23;;;;;;;18.28;62.65;101342.84;5049421;28;20127;-68
2022/11/02 00:16:37;;;;;;;11.97;2.10;;;;;;;18.38;62.46;101348.69;5047720;28;20033;-69
2022/11/02 00:19:03;;;;;;;13.40;2.03;;;;;;;19.00;60.51;101342.09;5047271;28;20036;-69
2022/11/02 00:21:29;;;;;;;7.03;1.73;;;;;;;18.66;61.73;101338.00;5041809;28;20029;-69
2022/11/02 00:23:56;;;;;;;9.93;1.77;;;;;;;19.13;61.77;101361.03;5035590;28;20035;-69
2022/11/02 00:26:23;;;;;;;10.75;1.80;;;;;;;18.19;63.75;101380.19;5049700;28;20048;-69
2022/11/02 00:28:48;;;;;;;9.57;1.50;;;;;;;17.32;68.00;101396.06;5048147;28;20021;-68
2022/11/02 00:31:14;;;;;;;5.60;1.37;;;;;;;17.57;64.94;101408.53;5034212;28;20031;-69
2022/11/02 00:33:39;;;;;;;1.90;1.07;;;;;;;16.83;63.79;101392.13;5050942;28;20144;-68
2022/11/02 00:36:05;;;;;;;4.10;0.80;;;;;;;17.29;60.28;101372.38;5046450;28;20166;-68
2022/11/02 00:38:31;;;;;;;3.80;0.63;;;;;;;18.09;56.97;101342.59;5048411;28;20037;-69
2022/11/02 00:40:56;;;;;;;4.43;1.50;;;;;;;17.45;58.68;101373.66;5043499;28;20078;-68
2022/11/02 00:43:22;;;;;;;4.07;0.70;;;;;;;16.90;58.92;101372.63;5045950;28;20416;-69
2022/11/02 00:45:47;;;;;;;3.47;0.53;;;;;;;16.42;59.66;101374.72;5042751;28;20082;-68
2022/11/02 00:48:12;;;;;;;6.57;0.60;;;;;;;17.29;58.91;101351.25;5049083;28;20028;-68
2022/11/02 00:50:38;;;;;;;5.60;0.80;;;;;;;17.20;55.49;101362.97;5045235;28;20527;-69
2022/11/02 00:53:03;;;;;;;5.90;0.77;;;;;;;17.92;54.13;101356.38;5040172;28;20416;-68
2022/11/02 00:55:28;;;;;;;7.80;0.77;;;;;;;17.34;55.00;101357.25;5051086;28;20409;-68
2022/11/02 00:57:54;;;;;;;5.97;0.90;;;;;;;17.16;55.28;101361.31;5049140;28;20408;-68
2022/11/02 01:00:19;;;;;;;4.20;0.80;;;;;;;16.17;58.91;101373.59;5039262;28;20033;-69
2022/11/02 01:02:45;;;;;;;5.87;1.00;;;;;;;17.17;55.91;101348.97;5046467;28;20047;-69
2022/11/02 01:05:11;;;;;;;2.23;0.60;;;;;;;17.71;55.20;101348.19;5053020;28;20040;-69
2022/11/02 01:07:36;;;;;;;6.80;0.70;;;;;;;18.28;54.20;101337.56;5041256;28;20148;-69
2022/11/02 01:10:04;;;;;;;4.27;0.73;;;;;;;17.22;57.22;101336.50;5037555;28;20139;-69
2022/11/02 01:12:29;;;;;;;6.50;0.90;;;;;;;16.77;58.15;101337.72;5047029;28;20469;-69
2022/11/02 01:14:54;;;;;;;3.70;1.47;;;;;;;16.93;58.63;101348.78;5053532;28;20036;-69
2022/11/02 01:17:20;;;;;;;6.47;1.07;;;;;;;17.19;57.90;101344.53;5048054;28;20033;-69
2022/11/02 01:19:45;;;;;;;6.40;0.80;;;;;;;16.47;59.63;101350.00;5047163;28;20175;-69
2022/11/02 01:22:10;;;;;;;8.00;1.13;;;;;;;17.24;57.51;101339.94;5055502;28;20025;-68
2022/11/02 01:24:36;;;;;;;6.67;1.10;;;;;;;16.84;57.45;101338.44;5048162;28;20039;-69
2022/11/02 01:27:01;;;;;;;5.77;1.10;;;;;;;17.87;54.18;101339.78;5048801;28;20435;-68
2022/11/02 01:29:26;;;;;;;5.67;0.77;;;;;;;17.10;57.40;101356.19;5047465;28;20060;-69
2022/11/02 01:31:52;;;;;;;5.90;0.93;;;;;;;15.99;60.76;101360.00;5036892;28;20029;-68
2022/11/02 01:34:19;;;;;;;7.67;1.20;;;;;;;17.22;57.34;101355.00;5049962;28;20028;-69
2022/11/02 01:36:45;;;;;;;8.50;1.23;;;;;;;15.94;60.45;101353.97;5048410;28;20028;-69
2022/11/02 01:39:11;;;;;;;9.10;1.00;;;;;;;16.25;60.30;101340.00;5047057;28;20032;-69
2022/11/02 01:41:36;;;;;;;5.57;1.00;;;;;;;15.90;59.93;101344.38;5064926;28;20040;-69
2022/11/02 01:44:02;;;;;;;9.73;1.03;;;;;;;16.41;57.83;101336.06;5047528;28;20032;-69
2022/11/02 01:46:41;;;;;;;8.70;1.87;;;;;;;17.19;56.60;101344.53;5048063;28;20477;-68
2022/11/02 01:49:15;;;;;;;12.70;1.10;;;;;;;16.99;55.76;101332.75;5037447;28;20032;-69
2022/11/02 01:51:49;;;;;;;9.33;1.10;;;;;;;17.41;55.79;101331.53;5052768;28;20036;-69
2022/11/02 01:54:19;;;;;;;9.33;1.00;;;;;;;17.38;55.78;101332.47;5052719;28;20037;-68
2022/11/02 01:56:47;;;;;;;9.70;1.20;;;;;;;17.39;55.54;101331.56;5052495;28;20037;-68
2022/11/02 01:59:20;;;;;;;12.57;1.13;;;;;;;17.02;58.25;101327.41;5053527;28;20182;-69
2022/11/02 02:01:46;;;;;;;13.63;1.83;;;;;;;17.06;57.65;101333.44;5051237;28;20040;-69
2022/11/02 02:04:12;;;;;;;13.23;1.60;;;;;;;17.69;57.09;101343.88;5052000;28;20033;-69
2022/11/02 02:06:39;;;;;;;7.40;1.10;;;;;;;16.87;59.71;101344.50;5040457;28;20032;-68
2022/11/02 02:09:06;;;;;;;7.90;1.07;;;;;;;17.39;58.20;101350.06;5035369;28;20032;-69
2022/11/02 02:11:37;;;;;;;13.30;1.47;;;;;;;17.25;58.95;101365.47;5049966;28;20032;-69
2022/11/02 02:14:13;;;;;;;4.67;1.43;;;;;;;17.20;59.31;101357.69;5049235;28;20021;-69
2022/11/02 02:16:51;;;;;;;15.87;1.30;;;;;;;17.71;56.92;101350.84;5047482;28;20058;-69
2022/11/02 02:19:50;;;;;;;6.10;1.17;;;;;;;18.14;58.03;101348.59;5045286;28;20098;-69
2022/11/02 02:22:53;;;;;;;14.33;1.73;;;;;;;17.18;61.25;101351.56;5039611;28;20086;-69
2022/11/02 02:25:30;;;;;;;11.57;1.98;;;;;;;18.09;56.78;101338.19;5034906;28;20115;-70
2022/11/02 02:28:14;;;;;;;7.63;1.30;;;;;;;17.89;58.57;101345.88;5060384;28;20032;-68
2022/11/02 02:30:48;;;;;;;13.63;2.10;;;;;;;18.16;57.17;101340.63;5038634;28;20565;-69
2022/11/02 02:33:36;;;;;;;9.27;1.23;;;;;;;17.24;61.64;101340.84;5052687;28;20328;-69
2022/11/02 02:36:27;;;;;;;5.73;1.20;;;;;;;18.10;57.90;101339.91;5068987;28;20488;-69
2022/11/02 02:39:04;;;;;;;8.60;1.90;;;;;;;18.36;57.24;101346.09;5041981;28;20025;-69
2022/11/02 02:41:35;;;;;;;13.27;1.60;;;;;;;18.16;57.36;101359.13;5042353;28;20033;-68
2022/11/02 02:44:02;;;;;;;6.30;1.80;;;;;;;18.21;56.63;101351.91;5040424;28;20035;-69
2022/11/02 02:46:34;;;;;;;7.20;1.33;;;;;;;18.05;57.97;101357.72;5051335;28;20033;-69
2022/11/02 02:49:00;;;;;;;8.07;1.63;;;;;;;17.78;56.57;101360.31;5057748;28;20021;-68
2022/11/02 02:51:29;;;;;;;5.83;1.10;;;;;;;17.91;57.44;101338.75;5065280;28;20411;-68
2022/11/02 02:54:02;;;;;;;6.83;1.23;;;;;;;17.50;58.58;101333.00;5051066;28;20432;-69
2022/11/02 02:56:35;;;;;;;9.50;1.40;;;;;;;17.66;58.80;101347.47;5052952;28;20123;-69
2022/11/02 02:59:14;;;;;;;9.80;1.88;;;;;;;17.51;61.67;101345.31;5048230;28;20055;-68
2022/11/02 03:01:43;;;;;;;11.93;1.60;;;;;;;17.61;61.73;101346.75;5046212;28;20094;-69
2022/11/02 03:04:12;;;;;;;10.63;1.57;;;;;;;17.35;61.33;101359.00;5042989;28;20036;-69
2022/11/02 03:06:39;;;;;;;15.43;1.73;;;;;;;17.62;62.61;101364.34;5050511;28;20090;-68
2022/11/02 03:09:11;;;;;;;12.33;1.60;;;;;;;17.70;61.72;101359.69;5041985;28;20017;-69
2022/11/02 03:12:09;;;;;;;14.00;2.17;;;;;;;18.36;58.67;101356.69;5066684;28;20064;-69
2022/11/02 03:14:39;;;;;;;10.73;2.07;;;;;;;17.17;64.04;101356.88;5050083;28;20103;-68
2022/11/02 03:17:19;;;;;;;11.77;2.17;;;;;;;17.94;60.31;101359.84;5050397;28;20044;-69
2022/11/02 03:19:53;;;;;;;11.57;2.17;;;;;;;17.49;61.14;101363.88;5038090;28;20408;-68
2022/11/02 03:22:29;;;;;;;10.70;1.57;;;;;;;17.02;60.64;101353.81;5060466;28;20039;-68
2022/11/02 03:25:14;;;;;;;16.13;2.30;;;;;;;17.87;58.46;101358.28;5049114;28;20033;-69
2022/11/02 03:27:55;;;;;;;14.00;2.40;;;;;;;17.41;59.67;101350.88;5053810;28;20111;-69
2022/11/02 03:30:22;;;;;;;12.97;2.10;;;;;;;17.42;60.86;101352.63;5051244;28;20500;-68
2022/11/02 03:33:05;;;;;;;10.33;1.53;;;;;;;17.46;62.00;101359.53;5054024;28;20029;-70
2022/11/02 03:35:35;;;;;;;10.23;2.05;;;;;;;17.34;60.47;101378.41;5064100;28;20432;-69
2022/11/02 03:38:14;;;;;;;16.33;2.67;;;;;;;17.59;61.23;101369.72;5050039;28;20090;-69
2022/11/02 03:40:44;;;;;;;12.83;3.10;;;;;;;17.55;60.07;101376.88;5050957;28;20043;-69
2022/11/02 03:43:11;;;;;;;22.60;2.43;;;;;;;18.88;56.30;101387.59;5049398;28;20033;-69
2022/11/02 03:45:43;;;;;;;20.60;2.93;;;;;;;18.52;55.83;101393.19;5060860;28;20059;-69
2022/11/02 03:48:11;;;;;;;19.33;2.15;;;;;;;18.43;55.55;101384.66;5054029;28;20017;-68
2022/11/02 03:50:43;;;;;;;16.67;2.70;;;;;;;17.54;57.92;101400.72;5042302;28;20099;-69
2022/11/02 03:53:14;;;;;;;13.57;2.13;;;;;;;17.31;59.79;101397.00;5047620;28;20044;-71
2022/11/02 03:55:45;;;;;;;9.13;2.17;;;;;;;16.91;61.18;101403.38;5048360;28;20091;-68
2022/11/02 03:58:11;;;;;;;15.13;1.97;;;;;;;18.14;59.67;101410.31;5050674;28;20033;-68
2022/11/02 04:00:43;;;;;;;15.10;3.40;;;;;;;18.17;57.98;101409.34;5042944;28;20094;-69
2022/11/02 04:03:11;;;;;;;19.05;2.25;;;;;;;17.51;58.68;101429.88;5034739;28;20080;-69
2022/11/02 04:05:36;;;;;;;19.10;2.17;;;;;;;17.71;59.48;101416.94;5050116;28;20036;-69
2022/11/02 04:08:20;;;;;;;18.93;2.30;;;;;;;18.36;56.98;101429.94;5046603;28;20028;-68
2022/11/02 04:16:19;;;;;;;14.97;1.77;;;;;;;17.99;57.50;101442.56;5050433;28;20409;-69
2022/11/02 04:21:29;;;;;;;15.23;2.10;;;;;;;18.34;55.69;101461.72;5032226;28;20417;-69
2022/11/02 04:26:38;;;;;;;14.93;2.13;;;;;;;17.04;59.45;101462.03;5052074;28;20082;-71
2022/11/02 04:29:04;;;;;;;16.37;3.00;;;;;;;18.05;59.13;101467.94;5059704;28;20477;-68
2022/11/02 04:31:30;;;;;;;14.47;1.80;;;;;;;18.33;56.20;101483.81;5045749;28;20180;-69
2022/11/02 04:33:57;;;;;;;24.43;2.83;;;;;;;17.74;59.17;101495.28;5047762;28;20489;-69
2022/11/02 04:36:22;;;;;;;12.63;2.00;;;;;;;18.25;57.60;101497.28;5052265;28;20020;-70
2022/11/02 04:38:48;;;;;;;15.20;2.20;;;;;;;17.80;59.41;101505.69;5047832;28;20029;-68
2022/11/02 04:44:01;;;;;;;16.77;2.03;;;;;;;18.29;57.19;101519.22;5045289;28;20135;-69
2022/11/02 04:46:29;;;;;;;13.87;2.10;;;;;;;17.89;58.29;101531.00;5050817;28;20132;-70
2022/11/02 04:48:55;;;;;;;20.70;2.40;;;;;;;19.14;55.57;101535.00;5046622;28;20116;-69
2022/11/02 04:51:21;;;;;;;17.90;2.70;;;;;;;18.45;56.63;101533.69;5064670;28;20025;-68
2022/11/02 04:53:47;;;;;;;18.50;2.27;;;;;;;18.21;56.95;101547.69;5041590;28;20033;-69
2022/11/02 04:56:14;;;;;;;13.93;1.90;;;;;;;17.96;56.60;101543.16;5049454;28;20072;-69
2022/11/02 04:58:39;;;;;;;13.47;2.70;;;;;;;18.35;55.85;101545.47;5048812;28;20032;-68
2022/11/02 05:01:12;;;;;;;9.33;1.57;;;;;;;17.92;56.98;101552.09;5048193;28;20027;-69
2022/11/02 05:03:37;;;;;;;;;;;;;;;19.18;53.21;101551.63;5045281;28;20030;-68
2022/11/02 05:06:03;;;;;;;16.73;1.60;;;;;;;18.81;53.31;101564.34;5050036;28;20376;-69
2022/11/02 05:08:28;;;;;;;17.30;2.00;;;;;;;18.44;55.21;101557.56;5050378;28;20044;-68
2022/11/02 05:10:55;;;;;;;14.77;2.47;;;;;;;18.49;54.93;101568.84;5031842;28;20037;-68
2022/11/02 05:13:21;;;;;;;11.83;1.80;;;;;;;18.84;54.79;101568.66;5051572;28;20051;-68
2022/11/02 05:15:47;;;;;;;14.53;2.37;;;;;;;18.75;54.25;101580.41;5049308;28;20039;-68
2022/11/02 05:18:12;;;;;;;11.70;1.87;;;;;;;18.29;55.89;101593.31;5048642;28;20021;-69
2022/11/02 05:20:37;;;;;;;10.33;1.70;;;;;;;17.83;56.55;101589.34;5051652;28;20035;-68
2022/11/02 05:23:03;;;;;;;11.20;1.63;;;;;;;18.10;55.12;101599.13;5045043;28;20025;-69
2022/11/02 05:25:28;;;;;;;13.87;1.83;;;;;;;17.32;55.65;101604.78;5057091;28;20031;-68
2022/11/02 05:27:56;;;;;;;11.33;2.90;;;;;;;18.35;52.48;101606.34;5049382;28;20021;-68
2022/11/02 05:30:21;;;;;;;10.60;1.47;;;;;;;17.10;54.24;101615.94;5047572;28;20025;-69
2022/11/02 05:32:46;;;;;;;11.23;1.40;;;;;;;18.58;50.73;101615.38;5042419;28;20512;-69
2022/11/02 05:35:12;;;;;;;8.60;1.33;;;;;;;18.15;51.53;101612.25;5049485;28;20108;-70
2022/11/02 05:37:37;;;;;;;9.80;1.60;;;;;;;17.77;52.88;101628.25;5040834;28;20057;-69
2022/11/02 05:40:03;;;;;;;14.97;2.70;;;;;;;19.01;49.47;101624.63;5029938;28;20061;-69
2022/11/02 05:42:29;;;;;;;14.17;1.43;;;;;;;18.65;49.40;101625.69;5045185;28;20112;-69
2022/11/02 05:44:54;;;;;;;17.47;1.63;;;;;;;17.31;52.32;101640.06;5048655;28;20162;-69
2022/11/02 05:47:19;;;;;;;11.70;1.00;;;;;;;16.99;51.89;101641.69;5050004;28;20076;-69
2022/11/02 05:49:45;;;;;;;4.53;1.07;;;;;;;18.14;50.60;101648.41;5048023;28;20029;-68
2022/11/02 05:52:10;;;;;;;11.77;1.30;;;;;;;17.03;52.25;101656.56;5047997;28;20031;-68
2022/11/02 05:54:36;;;;;;;8.53;1.77;;;;;;;17.95;50.07;101652.50;5048964;28;20064;-69
2022/11/02 05:57:01;;;;;;;10.40;1.20;;;;;;;17.36;52.26;101664.56;5049022;28;20045;-69
2022/11/02 05:59:26;;;;;;;7.23;1.40;;;;;;;17.00;51.69;101677.78;5049379;28;20029;-69
2022/11/02 06:01:52;;;;;;;8.33;1.10;;;;;;;17.42;51.50;101674.13;5050404;28;20029;-68
2022/11/02 06:04:17;;;;;;;6.73;1.07;;;;;;;18.29;49.73;101685.94;5048778;28;20068;-69
2022/11/02 06:06:43;;;;;;;14.10;1.50;;;;;;;17.99;50.30;101691.16;5035591;28;20025;-69
2022/11/02 06:09:08;;;;;;;8.53;1.33;;;;;;;17.44;51.33;101683.75;5049114;28;20017;-69
2022/11/02 06:11:34;;;;;;;8.63;1.43;;;;;;;17.08;51.18;101689.03;5047457;28;20021;-68
2022/11/02 06:13:59;;;;;;;9.13;1.83;;;;;;;18.42;48.51;101694.38;5047837;28;20439;-69
2022/11/02 06:16:25;;;;;;;10.17;1.20;;;;;;;16.98;50.64;101700.72;5048994;28;20025;-69
2022/11/02 06:18:50;;;;;;;16.60;1.37;;;;;;;17.29;50.17;101705.28;5047593;28;20926;-69
2022/11/02 06:21:16;;;;;;;9.90;1.30;;;;;;;16.34;51.35;101724.06;5047584;28;20440;-69
2022/11/02 06:23:42;;;;;;;10.37;1.20;;;;;;;17.95;48.48;101726.53;5048117;28;20024;-69
2022/11/02 06:26:08;;;;;;;8.27;1.23;;;;;;;17.03;48.92;101722.59;5038263;28;20116;-70
2022/11/02 06:28:34;;;;;;;9.07;1.13;;;;;;;17.83;47.67;101732.13;5058715;28;20033;-69
2022/11/02 06:30:59;;;;;;;8.57;1.20;;;;;;;18.07;47.16;101726.22;5049109;28;20480;-69
2022/11/02 06:33:25;;;;;;;8.37;1.43;;;;;;;17.44;47.68;101747.16;5047393;28;20037;-69
2022/11/02 06:35:52;;;;;;;13.10;1.77;;;;;;;17.34;48.39;101743.03;5051730;28;20415;-69
2022/11/02 06:38:18;;;;;;;11.67;1.80;;;;;;;17.24;49.28;101754.69;5039039;28;20024;-69
2022/11/02 06:40:58;;;;;;;15.10;1.47;;;;;;;17.43;47.45;101756.03;5049884;28;20032;-69
2022/11/02 06:43:24;;;;;;;14.93;1.47;;;;;;;18.52;46.38;101769.09;5043533;28;20022;-69
2022/11/02 06:45:54;;;;;;;9.27;1.27;;;;;;;18.68;44.92;101770.38;5047466;28;20116;-69
2022/11/02 06:48:19;;;;;;;17.20;1.87;;;;;;;17.96;46.35;101781.19;5049567;28;20062;-70
2022/11/02 06:50:45;;;;;;;13.83;1.83;;;;;;;19.73;43.50;101783.06;5052290;28;20102;-69
2022/11/02 06:53:10;;;;;;;15.90;1.73;;;;;;;17.82;47.22;101800.03;5050582;28;20079;-69
2022/11/02 06:55:36;;;;;;;11.27;1.53;;;;;;;18.11;46.54;101801.09;5036934;28;20041;-69
2022/11/02 06:58:01;;;;;;;11.90;1.60;;;;;;;17.89;47.19;101812.19;5059315;28;20040;-69
2022/11/02 07:00:28;;;;;;;8.30;1.00;;;;;;;18.69;46.06;101811.84;5050563;28;20622;-68
2022/11/02 07:03:02;;;;;;;10.07;1.60;;;;;;;18.27;46.01;101820.03;5049859;28;20055;-70
2022/11/02 07:05:27;;;;;;;10.77;1.60;;;;;;;18.21;46.45;101823.72;5049803;28;20116;-69
2022/11/02 07:07:53;;;;;;;8.43;1.20;;;;;;;17.43;47.05;101840.59;5045372;28;20096;-70
2022/11/02 07:10:19;;;;;;;13.80;1.40;;;;;;;18.80;45.29;101838.88;5059020;28;20033;-69
2022/11/02 07:12:44;;;;;;;9.30;1.30;;;;;;;18.59;45.38;101837.72;5052556;28;20439;-70
2022/11/02 07:15:10;;;;;;;13.60;1.57;;;;;;;17.38;48.09;101842.47;5050931;28;20044;-69
2022/11/02 07:17:39;;;;;;;9.53;1.87;;;;;;;18.98;45.12;101847.25;5049405;28;20025;-69
2022/11/02 07:20:09;;;;;;;10.57;1.70;;;;;;;17.66;47.78;101852.41;5072393;28;20028;-70
2022/11/02 07:22:37;;;;;;;12.20;2.03;;;;;;;19.23;44.55;101851.81;5073006;28;20539;-69
2022/11/02 07:25:03;;;;;;;7.07;1.93;;;;;;;18.53;45.76;101866.13;5062181;28;20021;-70
2022/11/02 07:27:37;;;;;;;7.57;1.23;;;;;;;19.36;44.35;101862.91;5054799;28;20027;-69
2022/11/02 07:30:03;;;;;;;15.30;2.37;;;;;;;18.88;44.29;101877.56;5071534;28;20031;-70
2022/11/02 07:32:29;;;;;;;18.70;2.10;;;;;;;19.24;44.86;101870.31;5060856;28;20393;-69
2022/11/02 07:34:54;;;;;;;11.33;1.67;;;;;;;17.85;47.35;101875.78;5051421;28;20017;-70
2022/11/02 07:37:19;;;;;;;13.70;1.67;;;;;;;19.48;45.20;101874.00;5050890;28;20444;-69
2022/11/02 07:39:45;;;;;;;6.90;0.98;;;;;;;20.19;43.43;101877.97;5061746;28;20128;-69
2022/11/02 07:42:10;;;;;;;9.63;1.57;;;;;;;18.17;46.15;101890.00;5049870;28;20091;-70
2022/11/02 07:44:35;;;;;;;9.10;1.38;;;;;;;19.11;44.24;101903.38;5048763;28;20028;-70
2022/11/02 07:47:01;;;;;;;13.82;1.70;;;;;;;19.39;44.46;101895.50;5059492;28;20051;-70
2022/11/02 07:49:26;;;;;;;11.43;1.43;;;;;;;18.87;45.05;101899.63;5050071;28;20025;-70
2022/11/02 07:51:52;;;;;;;6.78;1.52;;;;;;;19.23;44.25;101905.69;5048233;28;20135;-70
2022/11/02 07:54:17;;;;;;;14.70;1.75;;;;;;;19.29;43.70;101904.66;5052178;28;20099;-69
2022/11/02 07:56:45;;;;;;;15.65;1.83;;;;;;;19.95;42.75;101893.81;5050682;28;20057;-70
2022/11/02 07:59:14;;;;;;;12.15;1.55;;;;;;;18.05;45.33;101907.94;5055822;28;20451;-70
2022/11/02 08:01:40;;;;;;;11.97;1.30;;;;;;;19.10;43.38;101910.47;5028624;28;20142;-70
2022/11/02 08:04:06;;;;;;;10.02;1.70;;;;;;;18.79;44.58;101911.31;5044455;28;20496;-70
2022/11/02 08:06:34;;;;;;;14.57;1.57;;;;;;;19.67;42.00;101910.56;5051568;28;20119;-70
2022/11/02 08:08:59;;;;;;;6.57;1.40;;;;;;;18.91;44.09;101925.16;5047392;28;20063;-71
2022/11/02 08:11:25;;;;;;;14.03;1.67;;;;;;;18.56;44.55;101932.22;5044651;28;20103;-70
2022/11/02 08:13:50;;;;;;;10.63;1.40;;;;;;;19.23;43.39;101931.31;5045473;28;20094;-70
2022/11/02 08:16:15;;;;;;;13.60;1.40;;;;;;;19.57;43.01;101930.31;5046284;28;20037;-70
2022/11/02 08:18:41;;;;;;;14.43;2.45;;;;;;;18.93;43.43;101939.22;5047527;28;20059;-70
2022/11/02 08:21:06;;;;;;;11.35;1.33;;;;;;;18.62;43.43;101937.38;5043015;28;20090;-70
2022/11/02 08:23:31;;;;;;;10.50;1.58;;;;;;;19.21;42.81;101943.75;5045883;28;20481;-69
2022/11/02 08:25:58;;;;;;;6.63;1.40;;;;;;;19.26;42.41;101936.53;5053341;28;20588;-70
2022/11/02 08:28:39;;;;;;;11.15;1.98;;;;;;;19.76;42.09;101936.78;5047400;28;20074;-68
2022/11/02 08:31:16;;;;;;;8.50;1.20;;;;;;;20.23;41.19;101936.22;5044737;28;20528;-69
2022/11/02 08:33:42;;;;;;;9.15;1.17;;;;;;;20.28;40.79;101936.94;5046284;28;20040;-69
2022/11/02 08:36:09;;;;;;;8.18;1.40;;;;;;;19.46;42.29;101946.56;5055357;28;20369;-69
2022/11/02 08:38:35;;;;;;;13.40;1.83;;;;;;;19.68;40.54;101944.13;5051967;28;20036;-70
2022/11/02 08:41:01;;;;;;;7.65;1.48;;;;;;;19.97;40.81;101952.97;5036332;28;21067;-67
2022/11/02 08:43:26;;;;;;;12.93;1.50;;;;;;;19.91;40.57;101942.59;5043811;28;20036;-68
2022/11/02 08:45:52;;;;;;;10.98;1.42;;;;;;;20.69;38.96;101955.06;5049094;28;20060;-68
2022/11/02 08:48:17;;;;;;;6.63;1.10;;;;;;;20.11;39.92;101956.09;5053947;28;20039;-68
2022/11/02 08:50:43;;;;;;;12.95;1.50;;;;;;;20.32;40.00;101961.59;5054277;28;20477;-68
2022/11/02 08:53:08;;;;;;;11.10;2.85;;;;;;;19.83;39.80;101959.59;5047978;28;20032;-68
2022/11/02 08:55:33;;;;;;;11.55;1.73;;;;;;;21.39;37.95;101964.06;5049017;28;20409;-69
2022/11/02 08:57:59;;;;;;;14.55;3.13;;;;;;;20.76;38.75;101969.88;5057892;28;20036;-69
2022/11/02 09:00:28;;;;;;;11.05;1.30;;;;;;;19.54;40.43;101980.81;5066949;28;20066;-69
2022/11/02 09:03:04;;;;;;;11.13;1.05;;;;;;;20.24;39.18;101974.25;5050831;28;20039;-69
2022/11/02 09:05:35;;;;;;;7.28;1.13;;;;;;;19.58;40.29;101985.09;5051184;28;20096;-69
2022/11/02 09:08:04;;;;;;;11.05;1.30;;;;;;;19.79;39.95;101975.63;5065546;28;20561;-69
2022/11/02 09:10:31;;;;;;;9.88;1.30;;;;;;;20.00;39.65;101976.75;5048510;28;20033;-70
2022/11/02 09:12:58;;;;;;;15.00;1.20;;;;;;;19.61;40.08;101992.97;5050172;28;20033;-70
2022/11/02 09:15:24;;;;;;;7.78;0.93;;;;;;;19.67;39.50;101990.13;5053175;28;20107;-69
2022/11/02 09:17:49;;;;;;;7.90;1.15;;;;;;;20.84;37.68;101989.06;5058182;28;20124;-70
2022/11/02 09:20:16;;;;;;;6.20;1.17;;;;;;;19.98;38.33;101986.56;5049863;28;20035;-69
2022/11/02 09:22:42;;;;;;;7.82;1.17;;;;;;;21.32;37.13;101986.47;5065045;28;20040;-69
2022/11/02 09:25:08;;;;;;;5.85;0.90;;;;;;;21.81;36.29;101995.28;5051152;28;20027;-69
2022/11/02 09:27:33;;;;;;;6.30;1.25;;;;;;;21.89;36.28;101992.34;5067084;28;20029;-69
2022/11/02 09:29:59;;;;;;;15.95;2.03;;;;;;;20.68;37.09;101995.84;5048174;28;20477;-70
2022/11/02 09:32:24;;;;;;;23.38;1.92;;;;;;;21.81;36.45;102000.59;5049009;28;20477;-70
2022/11/02 09:34:50;;;;;;;16.77;1.83;;;;;;;23.38;34.70;101997.63;5053259;28;20048;-69
2022/11/02 09:37:16;;;;;;;9.48;1.58;;;;;;;23.30;34.66;102005.13;5068955;28;20032;-70
2022/11/02 09:39:41;;;;;;;13.35;1.40;;;;;;;22.16;35.48;102011.66;5065018;28;20576;-70
2022/11/02 09:42:46;;;;;;;10.68;1.92;;;;;;;22.12;36.67;102011.81;5048897;28;20028;-70
2022/11/02 09:45:15;;;;;;;12.70;1.63;;;;;;;22.03;36.67;102018.41;5047947;28;20063;-70
2022/11/02 09:47:53;;;;;;;8.30;1.48;;;;;;;21.78;37.25;102022.00;5045768;28;20385;-69
2022/11/02 09:50:37;;;;;;;7.50;1.30;;;;;;;21.33;38.16;102006.84;5046766;28;20286;-70
2022/11/02 09:53:07;;;;;;;12.43;1.75;;;;;;;20.35;40.45;102025.22;5049707;28;20028;-70
2022/11/02 09:55:37;;;;;;;11.52;1.50;;;;;;;19.71;41.81;102036.84;5049150;28;20128;-69
2022/11/02 09:58:10;;;;;;;11.50;1.65;;;;;;;20.02;41.44;102030.66;5044851;28;20017;-70
2022/11/02 10:00:39;;;;;;;10.25;1.50;;;;;;;20.64;39.93;102031.34;5046425;28;20400;-69
2022/11/02 10:03:36;;;;;;;11.27;1.52;;;;;;;20.29;41.05;102030.69;5030571;28;20029;-69
2022/11/02 10:06:16;;;;;;;16.02;1.95;;;;;;;20.83;41.50;102032.50;5040045;28;20051;-70
2022/11/02 10:08:53;;;;;;;10.70;1.55;;;;;;;21.31;40.86;102027.31;5059907;28;20078;-69
2022/11/02 10:11:38;;;;;;;16.30;1.80;;;;;;;20.21;42.46;102027.44;5052463;28;20061;-70
2022/11/02 10:14:11;;;;;;;11.32;1.30;;;;;;;22.17;40.04;102024.06;5052762;28;20116;-69
2022/11/02 10:16:49;;;;;;;14.60;1.70;;;;;;;20.71;41.84;102019.63;5063151;28;20043;-69
2022/11/02 10:19:18;;;;;;;11.20;1.90;;;;;;;20.55;42.22;102031.66;5061832;28;20028;-70
2022/11/02 10:21:47;;;;;;;13.00;2.08;;;;;;;21.16;41.00;102037.56;5050911;28;20029;-70
2022/11/02 10:24:24;;;;;;;19.13;1.70;;;;;;;22.51;39.49;102044.00;5051400;28;20028;-70
2022/11/02 10:26:53;;;;;;;16.23;1.95;;;;;;;21.72;40.72;102048.00;5060854;28;20033;-70
2022/11/02 10:29:57;;;;;;;9.85;1.60;;;;;;;21.40;41.09;102047.38;5052011;28;20017;-70
2022/11/02 10:32:23;;;;;;;7.53;1.58;;;;;;;20.58;43.15;102063.41;5047670;28;20032;-70
2022/11/02 10:34:48;;;;;;;13.63;1.85;;;;;;;21.56;41.37;102059.22;5046824;28;21205;-70
2022/11/02 10:37:41;;;;;;;12.55;2.45;;;;;;;20.38;43.84;102062.28;5050111;28;20028;-70
2022/11/02 10:40:12;;;;;;;17.17;2.15;;;;;;;21.78;41.40;102061.94;5050462;28;20029;-70
2022/11/02 10:43:17;;;;;;;9.45;2.30;;;;;;;20.59;42.48;102075.78;5052462;28;20086;-70
2022/11/02 10:46:04;;;;;;;11.65;2.17;;;;;;;21.45;42.05;102066.69;5026608;28;20051;-70
2022/11/02 10:49:08;;;;;;;15.50;1.88;;;;;;;22.45;39.61;102068.25;5063991;28;20048;-70
2022/11/02 10:51:33;;;;;;;13.65;1.90;;;;;;;21.14;42.30;102062.44;5053262;28;20503;-70
2022/11/02 10:53:59;;;;;;;5.88;1.25;;;;;;;21.47;41.57;102060.41;5061671;28;20079;-70
2022/11/02 10:56:30;;;;;;;12.88;2.15;;;;;;;22.45;40.06;102060.25;5044554;28;20417;-70
2022/11/02 10:59:01;;;;;;;20.10;2.03;;;;;;;21.96;41.22;102059.50;5057471;28;20035;-70
2022/11/02 11:01:28;;;;;;;9.40;1.80;;;;;;;21.11;42.54;102063.44;5072098;28;20044;-70
2022/11/02 11:03:58;;;;;;;16.50;2.15;;;;;;;21.18;42.99;102064.97;5066922;28;20052;-70
2022/11/02 11:06:28;;;;;;;18.52;2.13;;;;;;;21.98;41.02;102060.28;5054515;28;20115;-70
2022/11/02 11:08:59;;;;;;;13.00;1.85;;;;;;;20.43;44.55;102068.31;5052824;28;20112;-71
2022/11/02 11:11:26;;;;;;;10.25;1.70;;;;;;;21.31;42.59;102064.53;5054102;28;20111;-70
2022/11/02 11:14:03;;;;;;;9.15;1.60;;;;;;;21.81;40.53;102060.94;5061451;28;20032;-70
2022/11/02 11:16:39;;;;;;;13.77;1.77;;;;;;;21.86;40.51;102051.88;5052124;28;20111;-70
2022/11/02 11:19:17;;;;;;;6.75;1.38;;;;;;;22.30;40.19;102056.38;5053793;28;20024;-70
2022/11/02 11:21:43;;;;;;;13.55;1.80;;;;;;;22.56;39.56;102045.59;5061521;28;20054;-71
2022/11/02 11:24:22;;;;;;;11.23;1.90;;;;;;;23.07;39.96;102036.34;5055250;28;20082;-71
2022/11/02 11:27:03;;;;;;;12.13;2.25;;;;;;;23.36;39.23;102042.22;5048370;28;20043;-71
2022/11/02 11:29:36;;;;;;;8.90;1.45;;;;;;;23.18;38.40;102039.41;5053544;28;20753;-71
2022/11/02 11:32:03;;;;;;;8.65;1.88;;;;;;;23.83;36.83;102047.16;5063731;28;20056;-71
2022/11/02 11:34:31;;;;;;;10.52;2.30;;;;;;;23.23;38.38;102057.03;5051489;28;20017;-72
2022/11/02 11:37:11;;;;;;;12.65;2.00;;;;;;;24.54;35.61;102049.13;5050360;28;20032;-71
2022/11/02 11:39:39;;;;;;;13.13;1.52;;;;;;;23.92;35.82;102066.38;5059070;28;20119;-71
2022/11/02 11:42:15;;;;;;;12.52;2.20;;;;;;;22.38;37.77;102074.75;5053020;28;20025;-71
2022/11/02 11:44:58;;;;;;;8.57;1.65;;;;;;;21.28;39.63;102064.63;5063590;28;20060;-71
2022/11/02 11:47:29;;;;;;;11.05;1.98;;;;;;;22.46;37.07;102066.44;5050665;28;20397;-71